Robeson, Pennsylvania
Current Conditions -  °F | °C
As of 9:54 PM on Tuesday 21 Oct 2014 (Local Time) from KRDG Reporting Station
Overcast Overcast  
Wind Chill: 56°   Ceiling: 8500
Heat Index: 56°   Visibility: 10mi
Dew Point: 48°   Wind: 3mph
Humidity: 75%   Direction: 40°NE
Pressure: 29.9"   Gusts: NA
Location:  40.2313°N, 75.8555°W
Report Text: KRDG 220154Z AUTO 04003KT 10SM FEW060 OVC085 13/09 A2990 RMK AO2 SLP129 T01330089
Loading
Personal Weather Stations






























Interactive Weather Map
Tropical Storm Tracking
New forecast layout! Learn more

10-Day Weather Forecast

Advertisements
Track Severe Weather on mobile